Time;durP1;ratioP1;P1;durP2;ratioP2;P2;SDS_P1;SDS_P2;PMS_P1;PMS_P2;Temp;Humidity;BMP_temperature;BMP_pressure;BME280_temperature;BME280_humidity;BME280_pressure;Samples;Min_cycle;Max_cycle;Signal;HPM_P1;HPM_P2
2022/02/20 00:00:38;;;;;;;;;1.00;1.00;;;;;9.65;66.62;101618.41;5070728;28;49842;-70
2022/02/20 00:03:04;;;;;;;;;2.00;0.75;;;;;9.85;67.03;101646.31;5070438;28;49828;-70
2022/02/20 00:05:29;;;;;;;;;2.00;0.50;;;;;9.85;66.67;101638.44;5070902;28;49720;-70
2022/02/20 00:07:55;;;;;;;;;2.50;1.50;;;;;9.88;67.33;101645.53;5070884;28;49883;-70
2022/02/20 00:10:20;;;;;;;;;1.00;1.00;;;;;9.92;66.76;101642.16;5070468;28;49992;-70
2022/02/20 00:12:45;;;;;;;;;1.00;1.00;;;;;9.88;67.10;101627.16;5070752;27;49881;-70
2022/02/20 00:15:11;;;;;;;;;3.25;1.00;;;;;9.94;67.18;101635.25;5070632;27;49794;-69
2022/02/20 00:17:36;;;;;;;;;0.50;0.50;;;;;9.96;66.53;101642.34;5070595;28;49747;-69
2022/02/20 00:20:03;;;;;;;;;0.00;0.00;;;;;9.82;66.41;101608.56;5070433;28;50038;-70
2022/02/20 00:22:28;;;;;;;;;1.00;1.00;;;;;10.02;66.36;101633.81;5070446;27;49883;-70
2022/02/20 00:24:56;;;;;;;;;1.00;1.00;;;;;10.06;66.64;101642.69;5070464;28;50007;-70
2022/02/20 00:27:22;;;;;;;;;2.25;1.25;;;;;10.04;66.73;101627.81;5070553;27;50273;-70
2022/02/20 00:29:47;;;;;;;;;2.25;1.00;;;;;10.04;66.69;101633.03;5070068;28;49678;-70
2022/02/20 00:32:13;;;;;;;;;1.00;1.00;;;;;10.07;66.71;101631.38;5070122;28;49625;-69
2022/02/20 00:34:38;;;;;;;;;0.75;0.25;;;;;10.04;66.67;101638.28;5063922;28;49931;-69
2022/02/20 00:37:03;;;;;;;;;0.75;0.75;;;;;10.06;66.71;101638.34;5070720;28;50050;-70
2022/02/20 00:39:31;;;;;;;;;0.75;0.75;;;;;10.03;66.53;101641.72;5070201;28;50537;-70
2022/02/20 00:41:57;;;;;;;;;0.25;0.25;;;;;9.97;67.29;101617.91;5069652;28;49640;-69
2022/02/20 00:44:22;;;;;;;;;1.00;1.00;;;;;10.11;67.35;101641.13;5070280;28;50089;-69
2022/02/20 00:46:48;;;;;;;;;1.75;0.25;;;;;10.10;67.39;101637.59;5070048;28;49908;-69
2022/02/20 00:49:13;;;;;;;;;2.00;1.00;;;;;10.05;67.52;101633.94;5069957;28;51395;-69
2022/02/20 00:51:39;;;;;;;;;2.00;2.00;;;;;10.09;67.88;101635.81;5070060;28;49769;-69
2022/02/20 00:54:08;;;;;;;;;0.50;0.50;;;;;10.14;67.59;101638.63;5070288;28;50068;-69
2022/02/20 00:56:34;;;;;;;;;1.75;1.75;;;;;10.13;67.29;101636.81;5070254;28;50284;-71
2022/02/20 00:58:59;;;;;;;;;0.50;0.25;;;;;10.16;67.77;101634.31;5070047;28;50585;-70
2022/02/20 01:01:24;;;;;;;;;1.00;1.00;;;;;9.93;67.56;101584.53;5069710;28;49567;-69
2022/02/20 01:03:50;;;;;;;;;2.50;0.00;;;;;10.19;67.86;101627.44;5069955;28;49701;-70
2022/02/20 01:06:15;;;;;;;;;7.50;2.00;;;;;10.17;67.68;101620.38;5073819;28;49793;-69
2022/02/20 01:08:40;;;;;;;;;2.25;0.00;;;;;10.19;67.43;101618.69;5073307;28;49715;-70
2022/02/20 01:11:06;;;;;;;;;0.25;0.25;;;;;10.17;68.10;101625.63;5073340;27;49845;-69
2022/02/20 01:13:31;;;;;;;;;1.00;0.75;;;;;10.23;67.26;101628.47;5073512;28;49849;-70
2022/02/20 01:15:56;;;;;;;;;3.50;2.50;;;;;10.07;67.67;101594.63;5055242;28;50014;-69
2022/02/20 01:18:22;;;;;;;;;1.25;0.75;;;;;10.23;67.48;101620.59;5073278;28;49917;-70
2022/02/20 01:20:47;;;;;;;;;3.00;3.00;;;;;10.15;67.48;101596.69;5073255;28;49921;-69
2022/02/20 01:23:12;;;;;;;;;2.00;1.50;;;;;10.08;67.29;101599.94;5073552;28;49726;-70
2022/02/20 01:25:38;;;;;;;;;2.00;1.00;;;;;10.24;67.93;101622.41;5073352;28;50016;-69
2022/02/20 01:28:03;;;;;;;;;2.50;2.50;;;;;10.19;67.85;101609.06;5073088;28;50662;-69
2022/02/20 01:30:29;;;;;;;;;1.50;1.50;;;;;10.23;68.15;101626.78;5072873;27;49711;-69
2022/02/20 01:32:54;;;;;;;;;5.00;2.00;;;;;10.26;67.63;101618.09;5073115;28;49978;-69
2022/02/20 01:35:20;;;;;;;;;2.50;1.50;;;;;10.29;66.98;101624.34;5073290;27;49941;-69
2022/02/20 01:37:45;;;;;;;;;1.00;1.00;;;;;10.19;67.46;101626.56;5072926;28;50440;-69
2022/02/20 01:40:11;;;;;;;;;2.50;1.75;;;;;10.11;68.26;101601.75;5072891;28;49786;-69
2022/02/20 01:42:37;;;;;;;;;3.50;3.00;;;;;10.19;67.48;101618.69;5073179;28;49864;-68
2022/02/20 01:45:02;;;;;;;;;0.00;0.00;;;;;10.31;67.63;101637.50;5073222;28;49672;-69
2022/02/20 01:47:29;;;;;;;;;1.00;0.00;;;;;10.31;68.03;101637.50;5072426;28;49774;-68
2022/02/20 01:49:54;;;;;;;;;3.50;1.25;;;;;10.34;68.02;101631.50;5072822;28;49728;-69
2022/02/20 01:52:22;;;;;;;;;2.25;1.50;;;;;10.30;67.64;101615.63;5072843;28;50107;-68
2022/02/20 01:54:47;;;;;;;;;2.50;1.00;;;;;10.35;67.83;101620.16;5073006;27;50048;-68
2022/02/20 01:57:13;;;;;;;;;3.75;3.00;;;;;10.36;67.98;101614.97;5072782;28;49741;-68
2022/02/20 01:59:38;;;;;;;;;0.00;0.00;;;;;10.39;68.11;101620.31;5072810;28;49749;-69
2022/02/20 02:02:04;;;;;;;;;5.25;3.50;;;;;10.36;67.36;101608.81;5072643;27;49771;-69
2022/02/20 02:04:30;;;;;;;;;2.75;0.75;;;;;10.29;67.92;101597.22;5072991;28;49841;-69
2022/02/20 02:06:55;;;;;;;;;4.00;0.00;;;;;10.41;67.45;101613.38;5072325;28;49768;-69
2022/02/20 02:09:20;;;;;;;;;0.25;0.25;;;;;10.40;67.99;101614.22;5072545;28;49698;-69
2022/02/20 02:11:49;;;;;;;;;3.00;1.75;;;;;10.28;67.68;101598.94;5072554;28;49847;-69
2022/02/20 02:14:15;;;;;;;;;3.00;2.00;;;;;10.41;67.91;101628.25;5072879;28;49763;-68
2022/02/20 02:16:41;;;;;;;;;4.50;3.00;;;;;10.42;67.83;101630.03;5052992;28;51490;-69
2022/02/20 02:19:06;;;;;;;;;2.00;1.50;;;;;10.31;67.70;101600.78;5072358;28;49915;-69
2022/02/20 02:21:32;;;;;;;;;5.50;1.75;;;;;10.31;67.15;101603.41;5072647;28;49944;-69
2022/02/20 02:23:57;;;;;;;;;2.00;2.00;;;;;10.43;66.90;101624.84;5072429;28;49644;-69
2022/02/20 02:26:24;;;;;;;;;2.50;0.75;;;;;10.42;67.13;101630.03;5072306;28;50381;-69
2022/02/20 02:28:49;;;;;;;;;3.50;2.50;;;;;10.11;66.78;101570.28;5072231;28;49707;-69
2022/02/20 02:31:16;;;;;;;;;2.75;2.00;;;;;10.27;67.29;101598.91;5071958;28;49939;-69
2022/02/20 02:33:42;;;;;;;;;2.00;2.00;;;;;10.40;67.54;101614.22;5072410;28;49753;-69
2022/02/20 02:36:08;;;;;;;;;3.00;2.00;;;;;10.32;67.69;101586.81;5071970;28;50602;-69
2022/02/20 02:38:35;;;;;;;;;0.75;0.75;;;;;10.15;67.47;101570.47;5071966;28;49810;-69
2022/02/20 02:41:06;;;;;;;;;1.00;1.00;;;;;10.13;67.90;101565.97;5072278;27;49688;-69
2022/02/20 02:43:35;;;;;;;;;4.50;2.75;;;;;10.20;67.40;101594.22;5072108;28;49905;-68
2022/02/20 02:46:02;;;;;;;;;2.25;1.50;;;;;10.25;67.74;101600.59;5071593;28;50103;-68
2022/02/20 02:48:27;;;;;;;;;2.75;2.75;;;;;10.22;67.79;101608.31;5071838;28;49850;-69
2022/02/20 02:50:53;;;;;;;;;2.00;1.00;;;;;10.24;67.15;101611.91;5071901;28;49819;-69
2022/02/20 02:53:19;;;;;;;;;2.25;2.25;;;;;10.24;67.78;101607.56;5072223;28;50049;-69
2022/02/20 02:55:50;;;;;;;;;2.25;2.25;;;;;10.19;67.70;101616.94;5071671;28;49872;-69
2022/02/20 02:58:21;;;;;;;;;1.00;1.00;;;;;10.00;68.36;101589.16;5053596;28;49982;-69
2022/02/20 03:00:47;;;;;;;;;2.00;2.00;;;;;10.21;68.02;101620.50;5071758;28;49678;-68
2022/02/20 03:03:12;;;;;;;;;3.50;2.75;;;;;10.05;68.39;101605.09;5071588;28;49844;-69
2022/02/20 03:05:38;;;;;;;;;1.75;1.75;;;;;10.15;67.85;101643.94;5071452;27;49880;-69
2022/02/20 03:08:04;;;;;;;;;1.00;1.00;;;;;9.97;68.42;101607.41;5071537;28;49922;-69
2022/02/20 03:10:29;;;;;;;;;8.50;1.75;;;;;9.99;67.85;101621.47;5071726;28;49965;-69
2022/02/20 03:12:55;;;;;;;;;2.50;2.50;;;;;10.08;68.49;101623.53;5071841;28;49928;-69
2022/02/20 03:15:20;;;;;;;;;2.00;2.00;;;;;9.94;68.42;101578.47;5053229;28;50866;-69
2022/02/20 03:17:46;;;;;;;;;2.00;2.00;;;;;10.02;68.46;101610.19;5071231;28;49746;-69
2022/02/20 03:20:12;;;;;;;;;3.50;1.75;;;;;9.84;69.01;101583.28;5071404;27;49869;-69
2022/02/20 03:22:37;;;;;;;;;7.00;1.00;;;;;9.86;68.89;101589.50;5071711;28;49755;-69
2022/02/20 03:25:04;;;;;;;;;2.00;2.00;;;;;10.02;68.62;101616.34;5071266;28;50135;-69
2022/02/20 03:27:29;;;;;;;;;2.00;0.00;;;;;10.11;68.81;101626.28;5071275;28;49992;-69
2022/02/20 03:29:54;;;;;;;;;2.00;2.00;;;;;10.12;68.90;101616.66;5071159;28;50296;-69
2022/02/20 03:32:20;;;;;;;;;6.00;2.50;;;;;10.15;68.88;101622.03;5071248;27;49896;-69
2022/02/20 03:34:45;;;;;;;;;3.00;2.00;;;;;10.14;68.17;101636.91;5071089;28;50435;-69
2022/02/20 03:37:10;;;;;;;;;2.00;2.00;;;;;9.99;67.87;101603.13;5071327;28;49929;-69
2022/02/20 03:39:36;;;;;;;;;6.00;4.00;;;;;10.06;68.38;101625.22;5071206;28;49627;-68
2022/02/20 03:42:02;;;;;;;;;4.00;3.00;;;;;10.02;68.34;101616.34;5071358;28;49844;-69
2022/02/20 03:44:28;;;;;;;;;3.50;2.25;;;;;10.09;68.51;101630.56;5070909;28;50364;-69
2022/02/20 03:46:54;;;;;;;;;2.25;2.00;;;;;10.07;68.74;101639.22;5070866;27;49701;-69
2022/02/20 03:49:19;;;;;;;;;1.75;1.25;;;;;10.05;69.04;101626.06;5070861;28;50067;-69
2022/02/20 03:51:45;;;;;;;;;2.75;2.75;;;;;9.88;68.28;101612.31;5071276;28;49816;-69
2022/02/20 03:54:11;;;;;;;;;3.00;2.00;;;;;10.09;68.61;101640.19;5070748;28;49646;-69
2022/02/20 03:56:36;;;;;;;;;2.75;2.00;;;;;9.69;68.46;101578.38;5070937;28;49639;-69
2022/02/20 03:59:02;;;;;;;;;6.50;4.25;;;;;10.05;68.49;101633.94;5070811;28;49893;-69
2022/02/20 04:01:28;;;;;;;;;5.25;3.25;;;;;10.07;68.89;101640.13;5070997;28;49776;-69
2022/02/20 04:03:53;;;;;;;;;3.25;3.25;;;;;10.07;68.16;101634.88;5070637;27;49668;-68
2022/02/20 04:06:18;;;;;;;;;3.25;1.50;;;;;10.09;68.81;101620.09;5070826;28;49813;-68
2022/02/20 04:08:44;;;;;;;;;3.25;3.00;;;;;10.09;68.59;101624.44;5070821;28;49735;-68
2022/02/20 04:11:09;;;;;;;;;3.25;2.00;;;;;10.04;68.53;101624.28;5070843;27;50083;-68
2022/02/20 04:13:34;;;;;;;;;2.00;1.25;;;;;9.80;68.00;101568.28;5070488;28;50533;-69
2022/02/20 04:16:00;;;;;;;;;3.50;2.00;;;;;9.76;68.44;101567.31;5070452;27;50070;-69
2022/02/20 04:18:25;;;;;;;;;2.00;2.00;;;;;10.14;68.16;101630.75;5070650;28;49855;-69
2022/02/20 04:20:51;;;;;;;;;3.00;2.75;;;;;10.16;68.50;101621.22;5070908;28;49689;-69
2022/02/20 04:23:16;;;;;;;;;2.00;2.00;;;;;10.17;68.11;101616.00;5070383;28;49830;-69
2022/02/20 04:25:41;;;;;;;;;5.50;5.50;;;;;10.17;68.22;101613.38;5070558;27;49814;-68
2022/02/20 04:28:07;;;;;;;;;2.25;2.25;;;;;9.79;68.39;101533.31;5070459;27;49998;-68
2022/02/20 04:30:32;;;;;;;;;7.00;3.00;;;;;10.20;68.11;101618.72;5070497;28;49686;-68
2022/02/20 04:32:57;;;;;;;;;3.75;3.50;;;;;10.22;68.04;101624.94;5069962;28;49740;-68
2022/02/20 04:35:23;;;;;;;;;2.00;2.00;;;;;10.19;67.88;101623.94;5070291;28;49870;-68
2022/02/20 04:37:53;;;;;;;;;1.50;1.50;;;;;10.21;68.63;101604.78;5070478;28;50190;-68
2022/02/20 04:40:19;;;;;;;;;6.25;2.75;;;;;10.21;68.33;101591.66;5069896;28;49740;-68
2022/02/20 04:42:44;;;;;;;;;3.00;2.00;;;;;10.19;67.95;101598.59;5051823;28;52724;-68
2022/02/20 04:45:09;;;;;;;;;5.25;4.00;;;;;10.04;67.52;101570.09;5070341;27;50030;-68
2022/02/20 04:47:35;;;;;;;;;1.50;1.50;;;;;10.20;67.69;101589.88;5069878;28;50041;-68
2022/02/20 04:50:00;;;;;;;;;2.00;2.00;;;;;10.19;68.23;101587.19;5070340;28;49932;-68
2022/02/20 04:52:25;;;;;;;;;3.25;2.00;;;;;10.15;67.53;101574.81;5069975;28;49880;-68
2022/02/20 04:54:51;;;;;;;;;3.00;3.00;;;;;10.10;67.79;101556.28;5070124;28;49985;-68
2022/02/20 04:57:16;;;;;;;;;3.75;2.75;;;;;10.17;68.08;101574.03;5070007;28;49737;-68
2022/02/20 04:59:41;;;;;;;;;6.75;3.00;;;;;10.22;67.51;101582.06;5070326;28;49919;-68
2022/02/20 05:02:07;;;;;;;;;5.25;3.00;;;;;10.20;67.54;101574.13;5069337;28;53128;-68
2022/02/20 05:04:32;;;;;;;;;1.00;1.00;;;;;9.72;67.59;101492.84;5069788;28;50400;-68
2022/02/20 05:06:57;;;;;;;;;1.50;1.00;;;;;10.21;67.66;101565.41;5069936;28;50056;-68
2022/02/20 05:09:23;;;;;;;;;2.50;2.50;;;;;10.22;67.11;101561.97;5070126;28;50078;-68
2022/02/20 05:11:48;;;;;;;;;2.00;1.50;;;;;10.12;67.71;101546.72;5069517;28;55473;-68
2022/02/20 05:14:13;;;;;;;;;6.75;3.25;;;;;10.22;67.06;101555.84;5069563;28;50055;-68
2022/02/20 05:16:39;;;;;;;;;3.50;2.75;;;;;10.25;66.91;101558.59;5062999;28;49959;-69
2022/02/20 05:19:04;;;;;;;;;3.50;2.25;;;;;10.11;67.60;101542.31;5070082;28;49961;-68
2022/02/20 05:21:30;;;;;;;;;3.25;1.25;;;;;10.25;66.84;101549.00;5069540;28;51271;-68
2022/02/20 05:23:55;;;;;;;;;2.50;2.00;;;;;10.14;66.90;101515.31;5069803;28;49800;-69
2022/02/20 05:26:20;;;;;;;;;8.25;3.00;;;;;10.24;66.92;101538.44;5069659;28;49870;-69
2022/02/20 05:28:46;;;;;;;;;1.00;1.00;;;;;10.20;66.90;101534.75;5069866;28;49899;-69
2022/02/20 05:31:12;;;;;;;;;2.00;1.50;;;;;10.23;67.01;101553.31;5068974;28;50317;-69
2022/02/20 05:33:37;;;;;;;;;5.50;3.75;;;;;10.18;67.32;101541.69;5069592;28;49653;-69
2022/02/20 05:36:02;;;;;;;;;3.00;3.00;;;;;10.23;67.51;101560.25;5069751;28;49979;-68
2022/02/20 05:38:28;;;;;;;;;1.75;1.00;;;;;10.00;67.04;101515.72;5069839;27;49808;-68
2022/02/20 05:40:53;;;;;;;;;6.25;4.00;;;;;10.04;67.06;101528.13;5069466;28;49719;-69
2022/02/20 05:43:18;;;;;;;;;1.50;1.25;;;;;10.22;66.98;101568.97;5069564;28;49780;-68
2022/02/20 05:45:44;;;;;;;;;0.75;0.75;;;;;10.01;67.97;101554.22;5069330;28;49608;-68
2022/02/20 05:48:10;;;;;;;;;2.25;2.25;;;;;10.23;67.19;101589.09;5069477;28;49940;-68
2022/02/20 05:50:35;;;;;;;;;4.00;3.25;;;;;10.24;67.70;101589.19;5069317;28;49882;-69
2022/02/20 05:53:01;;;;;;;;;4.00;2.25;;;;;10.24;67.35;101589.19;5072531;28;49717;-68
2022/02/20 05:55:26;;;;;;;;;1.50;1.50;;;;;9.84;67.40;101510.75;5072958;28;49808;-68
2022/02/20 05:57:54;;;;;;;;;2.00;2.00;;;;;10.29;67.69;101576.22;5072998;28;49969;-69
2022/02/20 06:00:25;;;;;;;;;4.75;2.00;;;;;10.28;66.72;101585.81;5072466;28;50528;-68
2022/02/20 06:02:50;;;;;;;;;3.25;1.00;;;;;10.18;67.38;101551.31;5072370;28;49715;-69
2022/02/20 06:05:15;;;;;;;;;2.00;1.00;;;;;10.33;67.21;101580.75;5072740;28;49911;-68
2022/02/20 06:07:41;;;;;;;;;3.75;2.00;;;;;10.29;67.05;101579.72;5072935;28;49949;-68
2022/02/20 06:10:08;;;;;;;;;2.25;1.00;;;;;10.31;67.77;101572.78;5072567;28;50402;-68
2022/02/20 06:12:34;;;;;;;;;6.50;2.25;;;;;10.31;67.61;101559.66;5072443;28;49798;-69
2022/02/20 06:15:00;;;;;;;;;2.25;2.25;;;;;10.20;67.25;101537.38;5072590;28;50007;-69
2022/02/20 06:17:26;;;;;;;;;6.25;4.25;;;;;10.20;67.35;101524.28;5072597;28;50018;-69
2022/02/20 06:19:52;;;;;;;;;2.75;1.00;;;;;10.39;67.78;101557.31;5072420;28;50961;-69
2022/02/20 06:22:17;;;;;;;;;7.00;3.75;;;;;10.29;67.49;101528.97;5072314;28;49904;-69
2022/02/20 06:24:43;;;;;;;;;3.00;1.00;;;;;10.43;67.28;101550.47;5072311;28;49861;-69
2022/02/20 06:27:10;;;;;;;;;5.75;3.00;;;;;10.26;67.23;101518.38;5054131;28;49992;-69
2022/02/20 06:29:35;;;;;;;;;2.00;1.00;;;;;10.43;67.52;101548.72;5071979;28;49795;-69
2022/02/20 06:32:01;;;;;;;;;1.00;0.00;;;;;10.43;67.14;101537.34;5072023;28;49877;-71
2022/02/20 06:34:26;;;;;;;;;3.00;1.00;;;;;10.41;67.34;101542.50;5072421;28;49954;-69
2022/02/20 06:36:53;;;;;;;;;1.50;1.50;;;;;10.44;67.40;101553.13;5072311;28;50015;-69
2022/02/20 06:39:19;;;;;;;;;0.50;0.00;;;;;10.45;67.76;101548.78;5072165;28;50303;-69
2022/02/20 06:41:44;;;;;;;;;3.25;3.25;;;;;10.41;67.84;101539.88;5072252;28;49968;-69
2022/02/20 06:44:10;;;;;;;;;1.75;1.00;;;;;10.43;67.39;101529.47;5072094;28;49796;-69
2022/02/20 06:46:36;;;;;;;;;3.50;2.50;;;;;10.26;67.97;101492.16;5072119;28;49719;-69
2022/02/20 06:49:02;;;;;;;;;2.00;2.00;;;;;10.40;67.62;101522.34;5071779;28;49803;-68
2022/02/20 06:51:28;;;;;;;;;6.50;3.00;;;;;10.49;68.01;101532.28;5071958;27;49995;-69
2022/02/20 06:53:54;;;;;;;;;3.75;1.50;;;;;10.46;67.71;101532.19;5072194;28;49908;-69
2022/02/20 06:56:20;;;;;;;;;2.00;1.00;;;;;10.49;67.80;101542.78;5072026;28;49850;-69
2022/02/20 06:58:45;;;;;;;;;3.50;3.00;;;;;10.51;68.01;101534.09;5071806;28;50513;-69
2022/02/20 07:01:10;;;;;;;;;1.25;1.25;;;;;10.36;67.88;101506.47;5071563;28;49972;-69
2022/02/20 07:03:36;;;;;;;;;5.00;2.75;;;;;10.20;67.64;101481.41;5071567;28;50021;-68
2022/02/20 07:06:01;;;;;;;;;4.00;2.00;;;;;10.49;67.61;101522.66;5072077;28;49643;-68
2022/02/20 07:08:27;;;;;;;;;1.25;1.25;;;;;10.52;67.89;101533.28;5071511;28;50170;-68
2022/02/20 07:10:52;;;;;;;;;4.00;1.50;;;;;10.58;67.97;101543.06;5071626;28;49883;-68
2022/02/20 07:13:17;;;;;;;;;2.00;1.00;;;;;10.46;68.05;101527.81;5071497;28;50264;-68
2022/02/20 07:15:43;;;;;;;;;3.25;3.25;;;;;10.61;68.20;101553.69;5071566;28;49718;-68
2022/02/20 07:18:09;;;;;;;;;1.00;1.00;;;;;10.61;68.06;101558.94;5071284;27;50544;-68
2022/02/20 07:20:34;;;;;;;;;2.75;1.00;;;;;10.63;68.57;101562.53;5071677;28;49837;-67
2022/02/20 07:23:00;;;;;;;;;4.00;2.00;;;;;10.48;68.26;101541.00;5071514;28;49656;-69
2022/02/20 07:25:25;;;;;;;;;3.75;1.75;;;;;10.69;68.57;101578.47;5071718;27;49796;-68
2022/02/20 07:27:54;;;;;;;;;1.75;1.25;;;;;10.59;67.72;101564.13;5071110;28;49723;-68
2022/02/20 07:30:21;;;;;;;;;2.00;2.00;;;;;10.72;68.34;101577.69;5071248;28;49901;-68
2022/02/20 07:32:47;;;;;;;;;3.50;2.00;;;;;10.71;68.38;101575.88;5070908;28;49808;-68
2022/02/20 07:35:13;;;;;;;;;0.50;0.50;;;;;10.70;68.38;101566.22;5071416;28;49908;-69
2022/02/20 07:37:38;;;;;;;;;1.00;1.00;;;;;10.77;68.10;101574.34;5071141;28;50609;-69
2022/02/20 07:40:06;;;;;;;;;2.00;2.00;;;;;10.68;67.97;101560.03;5071069;28;49846;-69
2022/02/20 07:42:31;;;;;;;;;3.00;2.50;;;;;10.85;68.21;101580.75;5071234;28;49929;-69
2022/02/20 07:44:57;;;;;;;;;4.75;1.00;;;;;10.86;67.83;101585.16;5071295;28;49867;-69
2022/02/20 07:47:22;;;;;;;;;1.50;1.00;;;;;10.83;67.60;101584.19;5070607;28;49812;-68
2022/02/20 07:49:47;;;;;;;;;7.00;4.00;;;;;10.96;67.83;101586.34;5071125;28;50567;-69
2022/02/20 07:52:13;;;;;;;;;8.50;2.00;;;;;11.03;67.53;101597.97;5071051;28;49930;-69
2022/02/20 07:54:38;;;;;;;;;2.75;2.75;;;;;10.94;67.93;101577.53;5071106;28;49908;-69
2022/02/20 07:57:04;;;;;;;;;7.00;4.50;;;;;10.87;67.45;101576.44;5070785;28;50619;-68
2022/02/20 07:59:30;;;;;;;;;3.50;2.00;;;;;11.14;67.46;101612.34;5070815;28;49724;-69
2022/02/20 08:01:55;;;;;;;;;3.25;3.00;;;;;11.20;66.89;101624.78;5064296;28;49826;-68
2022/02/20 08:04:21;;;;;;;;;3.75;1.00;;;;;11.04;67.12;101584.88;5070944;28;49944;-68
2022/02/20 08:06:46;;;;;;;;;1.00;1.00;;;;;11.15;66.76;101583.47;5070611;28;49843;-69
2022/02/20 08:09:12;;;;;;;;;4.00;2.75;;;;;11.39;66.84;101592.97;5070764;27;50102;-69
2022/02/20 08:11:37;;;;;;;;;0.00;0.00;;;;;11.44;66.43;101568.59;5070717;28;49926;-68
2022/02/20 08:14:03;;;;;;;;;1.00;1.00;;;;;11.47;66.92;101555.53;5077713;27;49760;-68
2022/02/20 08:16:28;;;;;;;;;1.25;1.25;;;;;11.55;66.29;101570.66;5070142;28;49831;-68
2022/02/20 08:18:53;;;;;;;;;1.50;1.50;;;;;11.60;66.01;101569.06;5070547;28;50013;-68
2022/02/20 08:21:19;;;;;;;;;1.00;1.00;;;;;11.47;65.93;101559.91;5070731;28;49936;-68
2022/02/20 08:23:45;;;;;;;;;1.50;1.00;;;;;11.65;65.58;101583.22;5052505;28;50244;-70
2022/02/20 08:26:11;;;;;;;;;6.50;2.75;;;;;11.70;65.35;101566.75;5070255;28;49791;-70
2022/02/20 08:28:36;;;;;;;;;2.75;2.75;;;;;11.88;65.12;101586.56;5070060;28;49823;-70
2022/02/20 08:31:01;;;;;;;;;3.75;3.00;;;;;11.78;65.04;101545.03;5069947;28;49867;-70
2022/02/20 08:33:27;;;;;;;;;1.00;1.00;;;;;11.97;65.21;101577.19;5070588;28;49811;-71
2022/02/20 08:35:53;;;;;;;;;2.00;2.00;;;;;11.97;64.63;101569.31;5070239;28;49976;-70
2022/02/20 08:38:21;;;;;;;;;5.00;3.00;;;;;11.99;64.71;101540.41;5070225;28;49756;-70
2022/02/20 08:40:50;;;;;;;;;1.00;1.00;;;;;12.11;64.44;101553.00;5070501;28;49881;-70
2022/02/20 08:43:17;;;;;;;;;4.00;1.00;;;;;12.15;64.38;101558.38;5070322;27;50256;-70
2022/02/20 08:45:43;;;;;;;;;3.25;3.25;;;;;12.18;63.96;101579.53;5070024;27;50256;-69
2022/02/20 08:48:09;;;;;;;;;4.00;1.00;;;;;12.22;63.89;101580.50;5069701;28;49763;-70
2022/02/20 08:50:35;;;;;;;;;3.00;1.75;;;;;12.22;63.54;101572.59;5070287;28;49897;-71
2022/02/20 08:53:00;;;;;;;;;1.25;1.25;;;;;12.25;64.16;101565.66;5070100;28;49966;-66
2022/02/20 08:55:27;;;;;;;;;3.00;1.00;;;;;12.27;63.62;101563.97;5069987;28;50397;-68
2022/02/20 08:57:53;;;;;;;;;4.50;2.50;;;;;12.26;64.09;101563.94;5070155;28;49759;-70
2022/02/20 09:00:18;;;;;;;;;4.00;3.00;;;;;12.30;64.19;101547.38;5063458;28;49925;-69
2022/02/20 09:02:44;;;;;;;;;1.50;1.00;;;;;12.22;63.74;101539.25;5070035;28;49641;-70
2022/02/20 09:05:10;;;;;;;;;10.75;2.75;;;;;12.51;63.34;101570.72;5069774;28;49890;-66
2022/02/20 09:07:35;;;;;;;;;3.50;2.25;;;;;12.56;62.69;101566.47;5069687;28;49691;-69
2022/02/20 09:10:04;;;;;;;;;1.00;1.00;;;;;12.55;62.92;101549.78;5051530;28;50055;-75
2022/02/20 09:12:29;;;;;;;;;2.00;0.75;;;;;12.78;62.24;101575.81;5070045;28;49907;-68
2022/02/20 09:14:54;;;;;;;;;1.25;1.25;;;;;12.83;62.42;101568.88;5069564;28;49737;-67
2022/02/20 09:17:20;;;;;;;;;4.50;1.00;;;;;12.91;62.07;101562.06;5069396;28;49756;-63
2022/02/20 09:19:45;;;;;;;;;3.25;2.75;;;;;13.01;62.16;101564.06;5069801;28;49848;-63
2022/02/20 09:22:10;;;;;;;;;2.25;1.75;;;;;12.90;61.51;101524.28;5069712;28;49854;-68
2022/02/20 09:24:36;;;;;;;;;1.00;1.00;;;;;13.16;61.48;101550.38;5072682;27;49913;-67
2022/02/20 09:27:01;;;;;;;;;4.75;3.25;;;;;13.25;60.33;101544.44;5076296;27;49820;-65
2022/02/20 09:29:26;;;;;;;;;2.75;2.75;;;;;13.34;60.60;101556.09;5077041;27;49801;-68
2022/02/20 09:31:52;;;;;;;;;2.00;1.50;;;;;13.40;60.22;101536.84;5077881;27;49640;-68
2022/02/20 09:34:17;;;;;;;;;1.00;1.00;;;;;13.55;59.71;101537.19;5074763;27;49737;-66
2022/02/20 09:36:42;;;;;;;;;2.75;2.50;;;;;13.58;59.42;101534.59;5074830;27;50055;-63
2022/02/20 09:39:08;;;;;;;;;2.00;2.00;;;;;13.62;59.23;101523.28;5072988;28;49930;-63
2022/02/20 09:41:35;;;;;;;;;1.75;1.00;;;;;13.57;59.29;101502.91;5073129;28;49592;-65
2022/02/20 09:44:04;;;;;;;;;1.75;1.75;;;;;13.83;59.27;101517.53;5074011;27;50531;-70
2022/02/20 09:46:29;;;;;;;;;4.00;2.25;;;;;13.83;59.10;101511.38;5079752;27;49766;-67
2022/02/20 09:48:56;;;;;;;;;1.25;1.25;;;;;13.75;59.09;101520.00;5059977;28;49661;-67
2022/02/20 09:51:22;;;;;;;;;3.00;2.00;;;;;13.69;59.12;101511.97;5072996;28;49913;-64
2022/02/20 09:53:48;;;;;;;;;2.00;2.00;;;;;13.56;59.08;101498.50;5072602;28;50725;-66
2022/02/20 09:56:13;;;;;;;;;0.50;0.50;;;;;13.51;59.13;101508.97;5072786;28;50057;-66
2022/02/20 09:58:39;;;;;;;;;2.00;0.00;;;;;13.49;59.23;101515.94;5072757;27;49814;-67
2022/02/20 10:01:06;;;;;;;;;0.50;0.00;;;;;13.57;58.59;101524.91;5073003;27;49704;-65
2022/02/20 10:03:37;;;;;;;;;1.50;1.00;;;;;13.68;58.95;101523.38;5072399;28;50508;-68
2022/02/20 10:06:05;;;;;;;;;3.50;2.50;;;;;13.91;58.60;101539.69;5072502;28;49767;-68
2022/02/20 10:08:43;;;;;;;;;2.00;1.00;;;;;14.03;57.38;101539.03;5072595;28;49691;-66
2022/02/20 10:11:12;;;;;;;;;1.50;1.50;;;;;14.08;57.51;101537.34;5067202;28;49997;-67
2022/02/20 10:13:37;;;;;;;;;3.50;1.00;;;;;14.15;57.26;101554.22;5072322;27;50498;-67
2022/02/20 10:16:16;;;;;;;;;2.25;1.00;;;;;13.62;56.72;101433.56;5072475;28;49803;-67
2022/02/20 10:18:44;;;;;;;;;2.75;1.00;;;;;14.37;57.02;101543.16;5072337;27;49654;-64
2022/02/20 10:21:10;;;;;;;;;3.00;1.00;;;;;14.59;56.47;101565.63;5072626;28;49757;-64
2022/02/20 10:23:40;;;;;;;;;1.00;1.00;;;;;14.77;55.66;101554.47;5080317;27;50984;-63
2022/02/20 10:26:18;;;;;;;;;5.00;2.75;;;;;14.82;55.23;101535.16;5072120;28;49777;-64
2022/02/20 10:29:11;;;;;;;;;1.75;0.75;;;;;14.97;55.80;101528.34;5071990;28;49892;-64
2022/02/20 10:31:41;;;;;;;;;3.00;1.25;;;;;14.94;54.67;101538.84;5057512;28;50162;-63
2022/02/20 10:34:08;;;;;;;;;1.00;1.00;;;;;14.75;54.86;101527.09;5071809;28;51443;-64
2022/02/20 10:36:58;;;;;;;;;0.50;0.00;;;;;14.77;55.53;101526.28;5071494;28;49650;-63
2022/02/20 10:39:35;;;;;;;;;3.00;2.00;;;;;14.82;55.66;101518.41;5072058;28;49949;-63
2022/02/20 10:42:15;;;;;;;;;3.25;2.75;;;;;14.78;55.04;101522.78;5072099;28;49894;-63
2022/02/20 10:44:51;;;;;;;;;4.25;1.75;;;;;14.76;55.39;101534.16;5071799;28;51171;-63
2022/02/20 10:47:17;;;;;;;;;3.00;0.75;;;;;14.69;55.58;101533.19;5071662;28;49703;-65
2022/02/20 10:49:42;;;;;;;;;4.75;2.00;;;;;14.51;55.51;101502.06;5072004;28;49815;-65
2022/02/20 10:52:28;;;;;;;;;2.00;2.00;;;;;14.71;55.84;101523.53;5072777;28;49885;-65
2022/02/20 10:55:33;;;;;;;;;4.75;3.00;;;;;14.70;54.95;101511.19;5071274;28;50369;-65
2022/02/20 10:57:59;;;;;;;;;3.50;1.75;;;;;14.94;54.90;101521.22;5013264;28;49752;-65
2022/02/20 11:00:24;;;;;;;;;5.00;1.75;;;;;15.03;53.91;101502.84;5071904;28;49708;-64
2022/02/20 11:03:26;;;;;;;;;5.00;1.50;;;;;15.11;54.47;101500.31;5071536;28;50084;-65
2022/02/20 11:05:53;;;;;;;;;5.25;2.00;;;;;15.11;54.08;101480.06;5057565;27;50835;-65
2022/02/20 11:08:24;;;;;;;;;2.50;1.00;;;;;15.16;53.44;101486.31;5071667;28;50075;-64
2022/02/20 11:10:50;;;;;;;;;2.50;1.50;;;;;15.22;53.77;101476.66;5070586;28;49921;-65
2022/02/20 11:13:17;;;;;;;;;1.75;0.75;;;;;15.37;54.01;101484.81;5071534;28;49691;-65
2022/02/20 11:15:44;;;;;;;;;3.75;1.50;;;;;15.42;52.92;101491.03;5071289;28;50399;-65
2022/02/20 11:18:14;;;;;;;;;1.75;1.75;;;;;15.20;53.05;101463.44;5071120;27;49905;-65
2022/02/20 11:20:42;;;;;;;;;5.00;2.00;;;;;15.36;53.01;101481.28;5071256;27;49740;-65
2022/02/20 11:23:09;;;;;;;;;4.25;4.25;;;;;15.20;53.13;101442.28;5071311;27;49614;-64